Time;durP1;ratioP1;P1;durP2;ratioP2;P2;SDS_P1;SDS_P2;PMS_P1;PMS_P2;Temp;Humidity;BMP_temperature;BMP_pressure;BME280_temperature;BME280_humidity;BME280_pressure;Samples;Min_cycle;Max_cycle;Signal;HPM_P1;HPM_P2
2022/12/28 00:01:39;;;;;;;2.28;0.57;;;9.90;99.90;;;;;;5046115;28;20493;-54
2022/12/28 00:04:06;;;;;;;2.05;0.73;;;9.90;99.90;;;;;;5052117;28;20411;-56
2022/12/28 00:06:33;;;;;;;3.33;0.70;;;9.90;99.90;;;;;;5051080;28;20103;-54
2022/12/28 00:09:00;;;;;;;1.45;0.50;;;10.00;99.90;;;;;;5052756;28;20040;-52
2022/12/28 00:11:27;;;;;;;1.95;0.52;;;10.00;99.90;;;;;;5052033;28;20051;-49
2022/12/28 00:13:56;;;;;;;2.38;0.60;;;10.00;99.90;;;;;;5052559;28;20098;-50
2022/12/28 00:16:23;;;;;;;1.70;0.57;;;10.00;99.90;;;;;;5039394;28;20048;-48
2022/12/28 00:18:50;;;;;;;1.55;0.40;;;10.00;99.90;;;;;;5035436;28;20049;-53
2022/12/28 00:21:17;;;;;;;2.35;0.57;;;10.00;99.90;;;;;;5042056;28;20045;-49
2022/12/28 00:23:43;;;;;;;2.33;0.50;;;10.00;99.90;;;;;;5052146;28;20069;-51
2022/12/28 00:26:10;;;;;;;1.48;0.40;;;10.10;99.90;;;;;;5051432;28;20068;-50
2022/12/28 00:28:37;;;;;;;1.60;0.43;;;10.10;99.90;;;;;;5051785;28;20525;-55
2022/12/28 00:31:04;;;;;;;0.57;0.30;;;10.10;99.90;;;;;;5046767;28;20055;-52
2022/12/28 00:33:30;;;;;;;3.05;0.45;;;10.10;99.90;;;;;;5032563;28;20049;-49
2022/12/28 00:35:57;;;;;;;0.93;0.30;;;10.10;99.90;;;;;;5039841;28;20041;-52
2022/12/28 00:38:24;;;;;;;1.15;0.30;;;10.10;99.90;;;;;;5052654;28;20049;-50
2022/12/28 00:40:51;;;;;;;0.82;0.28;;;10.20;99.90;;;;;;5051683;28;20029;-49
2022/12/28 00:43:18;;;;;;;1.65;0.30;;;10.20;99.90;;;;;;5047064;28;20372;-51
2022/12/28 00:45:44;;;;;;;1.02;0.20;;;10.20;99.90;;;;;;5052452;28;20049;-50
2022/12/28 00:48:11;;;;;;;1.08;0.30;;;10.30;99.90;;;;;;5044412;28;20050;-51
2022/12/28 00:50:38;;;;;;;1.05;0.30;;;10.30;99.90;;;;;;5032769;28;20049;-52
2022/12/28 00:53:05;;;;;;;1.25;0.30;;;10.30;99.90;;;;;;5052072;28;20045;-50
2022/12/28 00:55:31;;;;;;;0.60;0.30;;;10.30;99.90;;;;;;5052311;28;20070;-51
2022/12/28 00:57:58;;;;;;;1.27;0.25;;;10.30;99.90;;;;;;5041038;28;20125;-49
2022/12/28 01:00:25;;;;;;;1.25;0.38;;;10.30;99.90;;;;;;5051939;28;20052;-49
2022/12/28 01:02:52;;;;;;;1.45;0.30;;;10.30;99.90;;;;;;5052360;28;20499;-52
2022/12/28 01:05:19;;;;;;;0.73;0.40;;;10.40;99.90;;;;;;5051481;28;20499;-53
2022/12/28 01:07:45;;;;;;;1.85;0.30;;;10.40;99.90;;;;;;5050995;28;20408;-49
2022/12/28 01:10:12;;;;;;;0.73;0.20;;;10.40;99.90;;;;;;5050673;28;20094;-56
2022/12/28 01:12:39;;;;;;;0.47;0.22;;;10.40;99.90;;;;;;5050131;28;20096;-54
2022/12/28 01:15:06;;;;;;;0.93;0.20;;;10.40;99.90;;;;;;5053473;28;20098;-53
2022/12/28 01:17:32;;;;;;;1.05;0.30;;;10.50;99.90;;;;;;5055806;28;20041;-52
2022/12/28 01:19:59;;;;;;;1.02;0.30;;;10.50;99.90;;;;;;5056275;28;20041;-52
2022/12/28 01:22:26;;;;;;;1.05;0.30;;;10.50;99.90;;;;;;5056048;28;20045;-50
2022/12/28 01:24:53;;;;;;;0.98;0.30;;;10.50;99.90;;;;;;5046330;28;20115;-53
2022/12/28 01:27:19;;;;;;;0.88;0.40;;;10.50;99.90;;;;;;5035406;28;20443;-49
2022/12/28 01:29:46;;;;;;;1.80;0.50;;;10.50;99.90;;;;;;5051072;28;20090;-49
2022/12/28 01:32:15;;;;;;;0.90;0.30;;;10.60;99.90;;;;;;5054278;28;20044;-54
2022/12/28 01:34:41;;;;;;;0.75;0.40;;;10.60;99.90;;;;;;5053188;28;20037;-50
2022/12/28 01:37:10;;;;;;;1.48;0.30;;;10.60;99.90;;;;;;5050531;28;20045;-49
2022/12/28 01:39:37;;;;;;;0.65;0.30;;;10.60;99.90;;;;;;5053537;28;20041;-52
2022/12/28 01:42:04;;;;;;;1.13;0.30;;;10.60;99.90;;;;;;5041273;28;20439;-52
2022/12/28 01:44:32;;;;;;;0.77;0.20;;;10.60;99.90;;;;;;5040348;28;20060;-53
2022/12/28 01:46:59;;;;;;;2.17;0.43;;;10.60;99.90;;;;;;5050237;28;20073;-51
2022/12/28 01:49:26;;;;;;;0.50;0.17;;;10.60;99.90;;;;;;5042632;28;20496;-52
2022/12/28 01:51:52;;;;;;;0.70;0.20;;;10.60;99.90;;;;;;5041748;28;20065;-52
2022/12/28 01:54:19;;;;;;;1.27;0.30;;;10.60;99.90;;;;;;5039336;28;20068;-53
2022/12/28 01:56:46;;;;;;;1.02;0.30;;;10.70;99.90;;;;;;5041220;28;20542;-53
2022/12/28 01:59:12;;;;;;;1.13;0.30;;;10.70;99.90;;;;;;5034863;28;20053;-52
2022/12/28 02:01:39;;;;;;;1.10;0.30;;;10.70;99.90;;;;;;5037251;28;20084;-53
2022/12/28 02:04:06;;;;;;;2.10;0.32;;;10.70;99.90;;;;;;5045194;28;20045;-54
2022/12/28 02:06:33;;;;;;;3.80;0.40;;;10.70;99.90;;;;;;5042224;28;20079;-52
2022/12/28 02:09:00;;;;;;;1.00;0.40;;;10.80;99.90;;;;;;5040842;28;20064;-52
2022/12/28 02:11:28;;;;;;;1.98;0.52;;;10.80;99.90;;;;;;5036585;28;20446;-54
2022/12/28 02:13:54;;;;;;;2.05;0.40;;;10.80;99.90;;;;;;5051095;28;20049;-54
2022/12/28 02:16:22;;;;;;;0.75;0.30;;;10.80;99.90;;;;;;5049490;28;20084;-49
2022/12/28 02:18:49;;;;;;;0.85;0.30;;;10.80;99.90;;;;;;5040468;28;20058;-50
2022/12/28 02:21:16;;;;;;;3.00;0.50;;;10.80;99.90;;;;;;5040757;28;20427;-51
2022/12/28 02:23:43;;;;;;;1.52;0.38;;;10.80;99.90;;;;;;5036931;28;20038;-52
2022/12/28 02:26:09;;;;;;;1.63;0.40;;;10.90;99.90;;;;;;5040002;28;20546;-54
2022/12/28 02:28:36;;;;;;;1.70;0.40;;;10.90;99.90;;;;;;5043170;28;20053;-54
2022/12/28 02:31:03;;;;;;;2.20;0.30;;;10.90;99.90;;;;;;5042720;28;20045;-52
2022/12/28 02:33:30;;;;;;;0.38;0.20;;;10.90;99.90;;;;;;5049384;28;20049;-53
2022/12/28 02:35:58;;;;;;;1.08;0.40;;;10.90;99.90;;;;;;5046651;28;20942;-53
2022/12/28 02:38:25;;;;;;;2.15;0.40;;;10.90;99.90;;;;;;5050167;28;20484;-51
2022/12/28 02:40:55;;;;;;;0.60;0.30;;;10.90;99.90;;;;;;5035008;28;20048;-50
2022/12/28 02:43:21;;;;;;;0.52;0.30;;;10.90;99.90;;;;;;5042371;28;20037;-49
2022/12/28 02:51:27;;;;;;;1.80;0.50;;;10.90;99.90;;;;;;5032780;28;20049;-50
2022/12/28 02:53:55;;;;;;;1.10;0.35;;;11.00;99.90;;;;;;5042066;28;20063;-51
2022/12/28 02:56:22;;;;;;;1.25;0.38;;;11.00;99.90;;;;;;5041853;28;20117;-51
2022/12/28 02:58:48;;;;;;;1.00;0.30;;;11.00;99.90;;;;;;5041503;28;20041;-52
2022/12/28 03:01:16;;;;;;;2.63;0.75;;;11.00;99.90;;;;;;5034122;28;20045;-54
2022/12/28 03:03:43;;;;;;;2.08;0.40;;;11.00;99.90;;;;;;5034984;28;20034;-53
2022/12/28 03:08:56;;;;;;;0.63;0.30;;;11.00;99.90;;;;;;5033394;28;20097;-50
2022/12/28 03:11:24;;;;;;;0.68;0.30;;;11.00;99.90;;;;;;5035496;28;20049;-52
2022/12/28 03:13:51;;;;;;;1.40;0.38;;;11.00;99.90;;;;;;5042074;28;20091;-50
2022/12/28 03:16:19;;;;;;;0.95;0.40;;;11.00;99.90;;;;;;5039393;28;20076;-51
2022/12/28 03:32:38;;;;;;;0.75;0.30;;;11.10;99.90;;;;;;5038996;28;20053;-49
2022/12/28 03:35:05;;;;;;;2.00;0.40;;;11.10;99.90;;;;;;5042471;28;20095;-50
2022/12/28 03:37:32;;;;;;;1.27;0.30;;;11.10;99.90;;;;;;5048533;28;20051;-49
2022/12/28 03:40:00;;;;;;;1.60;0.40;;;11.10;99.90;;;;;;5051781;28;20381;-48
2022/12/28 03:45:12;;;;;;;1.50;0.38;;;11.10;99.90;;;;;;5049710;28;20053;-52
2022/12/28 03:47:59;;;;;;;1.83;0.40;;;11.10;99.90;;;;;;5054274;28;20052;-53
2022/12/28 03:50:26;;;;;;;0.63;0.30;;;11.10;99.90;;;;;;5051542;28;20049;-52
2022/12/28 03:52:53;;;;;;;1.67;0.52;;;11.10;99.90;;;;;;5032741;28;20107;-52
2022/12/28 03:55:20;;;;;;;1.02;0.30;;;11.10;99.90;;;;;;5032962;28;20042;-52
2022/12/28 03:57:47;;;;;;;0.65;0.30;;;11.20;99.90;;;;;;5049891;28;20045;-50
2022/12/28 04:00:19;;;;;;;2.13;0.43;;;11.20;99.90;;;;;;5050263;28;20473;-54
2022/12/28 04:02:49;;;;;;;1.33;0.30;;;11.20;99.90;;;;;;5037202;28;20534;-55
2022/12/28 04:05:17;;;;;;;1.75;0.40;;;11.10;99.90;;;;;;5049126;28;20041;-49
2022/12/28 04:07:45;;;;;;;0.75;0.40;;;11.10;99.90;;;;;;5051287;28;20061;-51
2022/12/28 04:10:12;;;;;;;0.85;0.30;;;11.10;99.90;;;;;;5050598;28;20051;-52
2022/12/28 04:12:39;;;;;;;0.45;0.22;;;11.10;99.90;;;;;;5043907;28;20081;-50
2022/12/28 04:15:26;;;;;;;0.47;0.20;;;11.10;99.90;;;;;;5040540;28;20052;-50
2022/12/28 04:17:53;;;;;;;0.73;0.20;;;11.10;99.90;;;;;;5033603;28;20046;-51
2022/12/28 04:20:19;;;;;;;0.85;0.20;;;11.10;99.90;;;;;;5037438;28;20041;-51
2022/12/28 04:22:49;;;;;;;1.10;0.20;;;11.10;99.90;;;;;;5032262;28;20046;-52
2022/12/28 04:25:15;;;;;;;2.17;0.22;;;11.10;99.90;;;;;;5032207;28;20041;-54
2022/12/28 04:27:42;;;;;;;0.25;0.10;;;11.10;99.90;;;;;;5049301;28;20052;-53
2022/12/28 04:30:25;;;;;;;0.90;0.10;;;11.10;99.90;;;;;;5049902;28;20048;-53
2022/12/28 04:32:53;;;;;;;0.63;0.10;;;11.10;99.90;;;;;;5032268;28;20061;-53
2022/12/28 04:35:20;;;;;;;0.68;0.28;;;11.10;99.90;;;;;;5048527;28;20499;-49
2022/12/28 04:37:48;;;;;;;2.53;0.10;;;11.10;99.90;;;;;;5051177;28;20496;-48
2022/12/28 04:40:15;;;;;;;0.00;0.00;;;11.10;99.90;;;;;;5052236;28;20154;-53
2022/12/28 04:42:42;;;;;;;0.38;0.10;;;11.10;99.90;;;;;;5051895;28;20044;-49
2022/12/28 04:45:08;;;;;;;0.10;0.10;;;11.10;99.90;;;;;;5046469;28;20045;-51
2022/12/28 04:47:35;;;;;;;0.20;0.10;;;11.10;99.90;;;;;;5045651;28;20045;-51
2022/12/28 04:50:02;;;;;;;0.10;0.10;;;11.10;99.90;;;;;;5034382;28;20050;-52
2022/12/28 04:52:28;;;;;;;0.22;0.22;;;11.10;99.90;;;;;;5050532;28;20045;-53
2022/12/28 04:54:55;;;;;;;0.10;0.10;;;11.10;99.90;;;;;;5056552;28;20357;-49
2022/12/28 04:57:22;;;;;;;0.35;0.10;;;11.10;99.90;;;;;;5043780;28;20075;-49
2022/12/28 04:59:49;;;;;;;0.10;0.10;;;11.10;99.90;;;;;;5036140;28;20095;-53
2022/12/28 05:02:15;;;;;;;0.10;0.10;;;11.10;99.90;;;;;;5037353;28;20111;-49
2022/12/28 05:04:42;;;;;;;0.17;0.10;;;11.10;99.90;;;;;;5049109;28;20045;-50
2022/12/28 05:07:09;;;;;;;0.40;0.10;;;11.10;99.90;;;;;;5044704;28;20041;-55
2022/12/28 05:09:36;;;;;;;0.22;0.10;;;11.00;99.90;;;;;;5036983;28;20381;-54
2022/12/28 05:12:02;;;;;;;0.10;0.10;;;11.00;99.90;;;;;;5036586;28;20065;-49
2022/12/28 05:14:29;;;;;;;0.30;0.17;;;11.00;99.90;;;;;;5048304;28;20063;-52
2022/12/28 05:17:02;;;;;;;1.30;0.10;;;11.00;99.90;;;;;;5039622;28;20558;-48
2022/12/28 05:19:29;;;;;;;0.47;0.10;;;11.00;99.90;;;;;;5048897;28;20119;-48
2022/12/28 05:21:56;;;;;;;0.43;0.17;;;11.00;99.90;;;;;;5037852;28;20048;-51
2022/12/28 05:24:22;;;;;;;0.80;0.10;;;11.00;99.90;;;;;;5037381;28;20045;-53
2022/12/28 05:26:49;;;;;;;0.40;0.40;;;11.00;99.90;;;;;;5041410;28;20033;-49
2022/12/28 05:29:16;;;;;;;0.25;0.10;;;11.00;99.90;;;;;;5037467;28;20048;-46
2022/12/28 05:31:42;;;;;;;0.55;0.20;;;11.00;99.90;;;;;;5039205;28;20044;-50
2022/12/28 05:34:09;;;;;;;0.43;0.20;;;11.00;99.90;;;;;;5042880;28;20044;-50
2022/12/28 05:36:38;;;;;;;0.10;0.10;;;11.00;99.90;;;;;;5041515;28;20033;-53
2022/12/28 05:39:05;;;;;;;0.25;0.13;;;11.00;99.90;;;;;;5044243;28;20048;-47
2022/12/28 05:41:31;;;;;;;0.65;0.15;;;11.00;99.90;;;;;;5051500;28;20075;-49
2022/12/28 05:43:58;;;;;;;0.80;0.20;;;11.00;99.90;;;;;;5036327;28;20037;-51
2022/12/28 05:46:25;;;;;;;0.38;0.10;;;11.00;99.90;;;;;;5036081;28;20046;-48
2022/12/28 05:48:53;;;;;;;1.77;0.30;;;11.00;99.90;;;;;;5054429;28;20544;-51
2022/12/28 05:51:20;;;;;;;0.60;0.20;;;11.00;99.90;;;;;;5036305;28;20061;-49
2022/12/28 05:53:47;;;;;;;1.70;0.20;;;11.00;99.90;;;;;;5036008;28;20045;-47
2022/12/28 05:56:14;;;;;;;1.42;0.20;;;11.00;99.90;;;;;;5043999;28;20049;-51
2022/12/28 05:58:40;;;;;;;1.15;0.28;;;11.00;99.90;;;;;;5055101;28;20045;-49
2022/12/28 06:01:07;;;;;;;1.85;0.77;;;11.00;99.90;;;;;;5055132;28;20047;-52
2022/12/28 06:03:34;;;;;;;2.08;0.45;;;11.00;99.90;;;;;;5055049;28;20076;-50
2022/12/28 06:06:01;;;;;;;1.65;0.43;;;11.00;99.90;;;;;;5054070;28;20045;-51
2022/12/28 06:08:28;;;;;;;1.70;0.40;;;11.00;99.90;;;;;;5055052;28;20128;-52
2022/12/28 06:10:54;;;;;;;1.15;0.30;;;11.00;99.90;;;;;;5054765;28;20057;-48
2022/12/28 06:13:21;;;;;;;1.52;0.30;;;11.00;99.90;;;;;;5054953;28;20076;-50
2022/12/28 06:15:49;;;;;;;1.20;0.30;;;11.00;99.90;;;;;;5053535;28;20053;-51
2022/12/28 06:18:16;;;;;;;0.77;0.20;;;11.00;99.90;;;;;;5054169;28;20045;-51
2022/12/28 06:20:43;;;;;;;1.33;0.30;;;11.00;99.90;;;;;;5054950;28;20043;-51
2022/12/28 06:23:10;;;;;;;1.08;0.20;;;11.00;99.90;;;;;;5053768;28;20078;-54
2022/12/28 06:25:37;;;;;;;0.47;0.20;;;11.00;99.90;;;;;;5053644;28;20049;-55
2022/12/28 06:28:04;;;;;;;0.70;0.20;;;11.00;99.90;;;;;;5035512;28;20045;-54
2022/12/28 06:30:30;;;;;;;1.55;0.40;;;11.00;99.90;;;;;;5035565;28;20069;-52
2022/12/28 06:32:57;;;;;;;1.10;0.20;;;10.90;99.90;;;;;;5035406;28;20037;-49
2022/12/28 06:35:24;;;;;;;1.35;0.43;;;11.00;99.90;;;;;;5051185;28;20049;-49
2022/12/28 06:37:50;;;;;;;1.77;0.30;;;11.00;99.90;;;;;;5048640;28;20038;-50
2022/12/28 06:40:17;;;;;;;1.40;0.32;;;11.00;99.90;;;;;;5042695;28;20067;-49
2022/12/28 06:42:53;;;;;;;0.55;0.22;;;11.00;99.90;;;;;;5046047;28;20464;-51
2022/12/28 06:45:20;;;;;;;1.63;0.20;;;11.00;99.90;;;;;;5046138;28;20057;-54
2022/12/28 06:47:47;;;;;;;0.95;0.20;;;11.00;99.90;;;;;;5047402;28;20036;-50
2022/12/28 06:50:13;;;;;;;1.00;0.30;;;10.90;99.90;;;;;;5052281;28;20049;-52
2022/12/28 06:52:41;;;;;;;1.60;0.20;;;10.90;99.90;;;;;;5041916;28;20068;-54
2022/12/28 06:55:07;;;;;;;0.68;0.25;;;10.90;99.90;;;;;;5048721;28;20050;-47
2022/12/28 06:57:34;;;;;;;1.55;0.40;;;10.90;99.90;;;;;;5049602;28;20041;-51
2022/12/28 07:00:01;;;;;;;1.95;0.40;;;10.90;99.90;;;;;;5048300;28;20095;-51
2022/12/28 07:02:28;;;;;;;1.33;0.45;;;10.90;99.90;;;;;;5042254;28;20669;-54
2022/12/28 07:04:55;;;;;;;3.03;0.50;;;10.90;99.90;;;;;;5041334;28;20099;-51
2022/12/28 07:07:21;;;;;;;2.03;0.45;;;10.90;99.90;;;;;;5035579;28;20041;-50
2022/12/28 07:09:48;;;;;;;2.20;0.50;;;10.90;99.90;;;;;;5048496;28;20096;-48
2022/12/28 07:12:15;;;;;;;2.25;0.43;;;10.80;99.90;;;;;;5041764;28;20110;-52
2022/12/28 07:14:41;;;;;;;2.20;0.50;;;10.80;99.90;;;;;;5046547;28;20044;-52
2022/12/28 07:17:08;;;;;;;2.10;0.50;;;10.80;99.90;;;;;;5045543;28;20080;-51
2022/12/28 07:19:35;;;;;;;2.38;0.70;;;10.80;99.90;;;;;;5040770;28;20120;-53
2022/12/28 07:22:02;;;;;;;3.58;0.70;;;10.80;99.90;;;;;;5045478;28;20042;-50
2022/12/28 07:24:29;;;;;;;2.90;0.52;;;10.80;99.90;;;;;;5045113;28;20037;-53
2022/12/28 07:26:56;;;;;;;4.55;0.98;;;10.70;99.90;;;;;;5044979;28;20468;-49
2022/12/28 07:29:22;;;;;;;3.58;0.68;;;10.70;99.90;;;;;;5040186;28;20037;-48
2022/12/28 07:31:49;;;;;;;6.18;1.80;;;10.70;99.90;;;;;;5039672;28;20041;-51
2022/12/28 07:34:16;;;;;;;3.33;1.05;;;10.70;99.90;;;;;;5052065;28;20046;-50
2022/12/28 07:36:42;;;;;;;5.90;1.05;;;10.70;99.90;;;;;;5042883;28;20042;-51
2022/12/28 07:39:09;;;;;;;6.15;1.17;;;10.60;99.90;;;;;;5041437;28;20539;-49
2022/12/28 07:41:36;;;;;;;4.93;1.35;;;10.60;99.90;;;;;;5048066;28;20124;-48
2022/12/28 07:44:04;;;;;;;5.78;1.33;;;10.60;99.90;;;;;;5040601;28;20049;-51
2022/12/28 07:46:31;;;;;;;5.85;1.13;;;10.60;99.90;;;;;;5044017;28;20555;-51
2022/12/28 07:48:58;;;;;;;5.20;1.20;;;10.60;99.90;;;;;;5052872;28;20048;-53
2022/12/28 07:51:25;;;;;;;4.80;1.00;;;10.50;99.90;;;;;;5052952;28;20528;-50
2022/12/28 07:53:52;;;;;;;2.97;0.93;;;10.50;99.90;;;;;;5044119;28;20553;-51
2022/12/28 07:56:19;;;;;;;10.23;1.60;;;10.50;99.90;;;;;;5048544;28;20044;-50
2022/12/28 07:58:46;;;;;;;7.93;1.48;;;10.50;99.90;;;;;;5052418;28;20120;-54
2022/12/28 08:01:12;;;;;;;4.57;1.20;;;10.50;99.90;;;;;;5045631;28;20111;-49
2022/12/28 08:03:39;;;;;;;6.18;1.40;;;10.50;99.90;;;;;;5043069;28;20146;-51
2022/12/28 08:06:06;;;;;;;7.38;1.23;;;10.50;99.90;;;;;;5038299;28;20125;-49
2022/12/28 08:08:33;;;;;;;5.38;1.40;;;10.50;99.90;;;;;;5049872;28;20042;-50
2022/12/28 08:10:59;;;;;;;8.05;1.45;;;10.50;99.90;;;;;;5033568;28;20132;-49
2022/12/28 08:13:26;;;;;;;8.35;2.10;;;10.50;99.90;;;;;;5037223;28;20400;-50
2022/12/28 08:15:53;;;;;;;11.45;1.60;;;10.50;99.90;;;;;;5036966;28;20050;-51
2022/12/28 08:18:20;;;;;;;7.43;1.50;;;10.50;99.90;;;;;;5033368;28;20045;-50
2022/12/28 08:20:46;;;;;;;5.82;1.40;;;10.50;99.90;;;;;;5033101;28;20037;-51
2022/12/28 08:23:13;;;;;;;5.25;1.45;;;10.50;99.90;;;;;;5033137;28;20049;-51
2022/12/28 08:25:40;;;;;;;9.25;1.50;;;10.50;99.90;;;;;;5041866;28;20574;-50
2022/12/28 08:28:07;;;;;;;11.55;2.20;;;10.40;99.90;;;;;;5052597;28;20094;-48
2022/12/28 08:30:34;;;;;;;10.02;1.83;;;10.40;99.90;;;;;;5052359;28;20048;-47
2022/12/28 08:33:00;;;;;;;10.48;1.92;;;10.40;99.90;;;;;;5050583;28;20047;-49
2022/12/28 08:35:27;;;;;;;12.60;1.85;;;10.40;99.90;;;;;;5047537;28;20055;-47
2022/12/28 08:37:54;;;;;;;11.43;2.08;;;10.40;99.90;;;;;;5052224;28;20052;-52
2022/12/28 08:40:26;;;;;;;9.25;1.60;;;10.30;99.90;;;;;;5051149;28;20045;-46
2022/12/28 08:42:54;;;;;;;8.20;1.77;;;10.30;99.90;;;;;;5051494;28;20041;-52
2022/12/28 08:45:21;;;;;;;9.90;1.70;;;10.30;99.90;;;;;;5050120;28;20037;-49
2022/12/28 08:47:47;;;;;;;7.07;1.85;;;10.30;99.90;;;;;;5039724;28;20049;-49
2022/12/28 08:50:14;;;;;;;6.32;1.95;;;10.30;99.90;;;;;;5044299;28;20045;-50
2022/12/28 08:52:45;;;;;;;8.70;1.55;;;10.30;99.90;;;;;;5040745;28;20111;-51
2022/12/28 08:55:12;;;;;;;9.93;2.10;;;10.20;99.90;;;;;;5040093;28;20071;-52
2022/12/28 08:57:39;;;;;;;4.78;1.50;;;10.30;99.90;;;;;;5037985;28;20046;-55
2022/12/28 09:00:05;;;;;;;10.95;1.58;;;10.20;99.90;;;;;;5038879;28;20033;-51
2022/12/28 09:02:32;;;;;;;6.72;1.50;;;10.20;99.90;;;;;;5037710;28;20435;-54
2022/12/28 09:04:59;;;;;;;5.32;1.30;;;10.30;99.90;;;;;;5043214;28;20041;-50
2022/12/28 09:07:26;;;;;;;8.73;1.70;;;10.30;99.90;;;;;;5043401;28;20041;-54
2022/12/28 09:09:53;;;;;;;7.10;1.15;;;10.30;99.90;;;;;;5040034;28;20045;-54
2022/12/28 09:12:20;;;;;;;6.28;1.70;;;10.30;99.90;;;;;;5037815;28;20107;-55
2022/12/28 09:14:46;;;;;;;5.55;1.02;;;10.30;99.90;;;;;;5040342;28;20511;-52
2022/12/28 09:17:13;;;;;;;5.60;1.10;;;10.30;99.90;;;;;;5040902;28;20103;-47
2022/12/28 09:19:40;;;;;;;4.85;1.00;;;10.30;99.90;;;;;;5044235;28;20075;-51
2022/12/28 09:22:06;;;;;;;6.18;1.10;;;10.30;99.90;;;;;;5034543;28;20038;-54
2022/12/28 09:24:33;;;;;;;5.95;0.98;;;10.30;99.90;;;;;;5038381;28;20424;-52
2022/12/28 09:27:00;;;;;;;8.30;1.42;;;10.30;99.90;;;;;;5036230;28;20492;-50
2022/12/28 09:29:27;;;;;;;9.00;1.48;;;10.30;99.90;;;;;;5039532;28;20100;-54
2022/12/28 09:31:56;;;;;;;7.93;1.50;;;10.30;99.90;;;;;;5036923;28;20048;-51
2022/12/28 09:34:23;;;;;;;8.30;1.60;;;10.30;99.90;;;;;;5036826;28;20053;-50
2022/12/28 09:37:05;;;;;;;9.80;1.90;;;10.40;99.90;;;;;;5041991;28;20073;-51
2022/12/28 09:39:32;;;;;;;8.23;1.63;;;10.40;99.90;;;;;;5044314;28;20525;-54
2022/12/28 09:41:59;;;;;;;9.13;1.98;;;10.40;99.90;;;;;;5042050;28;20430;-53
2022/12/28 09:44:26;;;;;;;9.80;1.42;;;10.40;99.90;;;;;;5047677;28;20045;-52
2022/12/28 09:46:52;;;;;;;10.00;1.80;;;10.40;99.90;;;;;;5039004;28;20396;-48
2022/12/28 09:49:19;;;;;;;7.75;1.90;;;10.40;99.90;;;;;;5046813;28;20045;-52
2022/12/28 09:51:46;;;;;;;10.25;2.03;;;10.40;99.90;;;;;;5038182;28;20038;-53
2022/12/28 09:54:13;;;;;;;9.82;1.80;;;10.50;99.90;;;;;;5043526;28;20048;-49
2022/12/28 09:56:40;;;;;;;8.52;1.48;;;10.50;99.90;;;;;;5045394;28;20086;-52
2022/12/28 09:59:06;;;;;;;8.10;1.67;;;10.50;99.90;;;;;;5043770;28;20037;-52
2022/12/28 10:01:33;;;;;;;8.27;1.60;;;10.50;99.90;;;;;;5042687;28;20033;-49
2022/12/28 10:04:00;;;;;;;9.27;2.33;;;10.50;99.90;;;;;;5038706;28;20071;-52
2022/12/28 10:06:27;;;;;;;7.43;1.35;;;10.50;99.90;;;;;;5046484;28;20049;-51
2022/12/28 10:08:53;;;;;;;11.02;2.83;;;10.50;99.90;;;;;;5045810;28;20052;-50
2022/12/28 10:11:20;;;;;;;12.40;2.72;;;10.40;99.90;;;;;;5041867;28;20053;-49
2022/12/28 10:13:47;;;;;;;6.90;1.50;;;10.40;99.90;;;;;;5045087;28;20048;-50
2022/12/28 10:16:22;;;;;;;10.35;1.92;;;10.40;99.90;;;;;;5042054;28;20748;-50
2022/12/28 10:18:49;;;;;;;8.95;1.65;;;10.40;99.90;;;;;;5042322;28;20370;-49
2022/12/28 10:21:17;;;;;;;7.72;1.58;;;10.40;99.90;;;;;;5036231;28;20037;-50
2022/12/28 10:23:44;;;;;;;11.98;1.75;;;10.40;99.90;;;;;;5044886;28;20040;-51
2022/12/28 10:26:30;;;;;;;7.88;1.63;;;10.30;99.90;;;;;;5041489;28;20033;-54
2022/12/28 10:28:57;;;;;;;11.77;2.70;;;10.30;99.90;;;;;;5040171;28;20072;-50
2022/12/28 10:31:24;;;;;;;13.98;2.58;;;10.40;99.90;;;;;;5046289;28;20037;-51
2022/12/28 10:33:51;;;;;;;13.75;2.08;;;10.40;99.90;;;;;;5044512;28;20038;-52
2022/12/28 10:36:17;;;;;;;13.55;1.98;;;10.30;99.90;;;;;;5043195;28;20471;-51
2022/12/28 10:38:44;;;;;;;7.28;1.50;;;10.30;99.90;;;;;;5045867;28;20443;-51
2022/12/28 10:41:11;;;;;;;11.25;1.85;;;10.30;99.90;;;;;;5045260;28;20037;-47
2022/12/28 10:43:38;;;;;;;8.90;1.75;;;10.30;99.90;;;;;;5042149;28;20029;-54
2022/12/28 10:46:05;;;;;;;11.77;2.17;;;10.30;99.90;;;;;;5041625;28;20381;-53
2022/12/28 10:48:32;;;;;;;9.60;2.00;;;10.30;99.90;;;;;;5048458;28;20041;-55
2022/12/28 10:50:59;;;;;;;8.65;1.70;;;10.30;99.90;;;;;;5044847;28;20474;-50
2022/12/28 10:53:25;;;;;;;7.20;1.77;;;10.20;99.90;;;;;;5044974;28;20400;-55
2022/12/28 10:55:52;;;;;;;9.80;2.10;;;10.30;99.90;;;;;;5044910;28;20061;-51
2022/12/28 10:58:19;;;;;;;9.18;1.73;;;10.20;99.90;;;;;;5043769;28;20049;-47
2022/12/28 11:00:56;;;;;;;7.60;1.60;;;10.20;99.90;;;;;;5040938;28;20037;-50
2022/12/28 11:03:23;;;;;;;11.52;1.88;;;10.30;99.90;;;;;;5039394;28;20120;-55
2022/12/28 11:05:50;;;;;;;11.65;2.20;;;10.30;99.90;;;;;;5037906;28;20029;-50
2022/12/28 11:08:23;;;;;;;7.38;1.77;;;10.20;99.90;;;;;;5046507;28;20068;-55
2022/12/28 11:10:49;;;;;;;10.50;1.77;;;10.20;99.90;;;;;;5044823;28;20054;-54
2022/12/28 11:13:16;;;;;;;9.20;1.45;;;10.30;99.90;;;;;;5042050;28;20042;-54
2022/12/28 11:15:47;;;;;;;6.95;1.42;;;10.20;99.90;;;;;;5036609;28;20049;-54
2022/12/28 11:18:14;;;;;;;8.15;1.80;;;10.30;99.90;;;;;;5044390;28;20037;-54
2022/12/28 11:20:41;;;;;;;8.20;1.80;;;10.30;99.90;;;;;;5043134;28;20480;-51
2022/12/28 11:23:07;;;;;;;13.20;1.92;;;10.20;99.90;;;;;;5042891;28;20095;-55
2022/12/28 11:25:34;;;;;;;8.35;2.17;;;10.20;99.90;;;;;;5043628;28;20045;-51
2022/12/28 11:28:01;;;;;;;11.80;2.20;;;10.20;99.90;;;;;;5040392;28;20052;-50
2022/12/28 11:30:28;;;;;;;10.77;1.90;;;10.20;99.90;;;;;;5044209;28;20451;-54
2022/12/28 11:32:55;;;;;;;9.38;2.13;;;10.20;99.90;;;;;;5040572;28;20053;-48
2022/12/28 11:35:21;;;;;;;10.25;1.63;;;10.20;99.90;;;;;;5038444;28;20037;-51
2022/12/28 11:37:48;;;;;;;12.88;1.88;;;10.20;99.90;;;;;;5043895;28;20049;-54
2022/12/28 11:40:15;;;;;;;10.65;1.95;;;10.20;99.90;;;;;;5041515;28;20040;-54
2022/12/28 11:42:42;;;;;;;8.02;1.55;;;10.20;99.90;;;;;;5045224;28;20046;-47
2022/12/28 11:45:08;;;;;;;10.50;2.10;;;10.10;99.90;;;;;;5042337;28;20045;-51
2022/12/28 11:47:35;;;;;;;10.75;1.90;;;10.10;99.90;;;;;;5045539;28;20061;-54
2022/12/28 11:50:02;;;;;;;8.20;1.98;;;10.10;99.90;;;;;;5045539;28;20103;-50
2022/12/28 11:52:32;;;;;;;8.85;1.90;;;10.10;99.90;;;;;;5036123;28;20050;-50
2022/12/28 11:54:59;;;;;;;8.00;1.70;;;10.10;99.90;;;;;;5043353;28;20207;-52
2022/12/28 11:57:26;;;;;;;8.43;2.13;;;10.10;99.90;;;;;;5044258;28;20127;-54
2022/12/28 11:59:53;;;;;;;10.75;1.90;;;10.10;99.90;;;;;;5049986;28;20075;-52
2022/12/28 12:02:20;;;;;;;7.90;1.50;;;10.10;99.90;;;;;;5046444;28;20037;-49
2022/12/28 12:04:47;;;;;;;9.05;1.65;;;10.10;99.90;;;;;;5049042;28;20047;-54
2022/12/28 12:07:14;;;;;;;8.45;1.50;;;10.20;99.90;;;;;;5046604;28;20075;-54
2022/12/28 12:09:42;;;;;;;8.63;1.55;;;10.20;99.90;;;;;;5042610;28;20045;-54
2022/12/28 12:12:09;;;;;;;6.63;1.40;;;10.20;99.90;;;;;;5042292;28;20054;-54
2022/12/28 12:14:43;;;;;;;8.55;1.30;;;10.10;99.90;;;;;;5044229;28;20045;-53
2022/12/28 12:17:09;;;;;;;6.10;1.20;;;10.20;99.90;;;;;;5046650;28;20040;-51
2022/12/28 12:19:36;;;;;;;6.97;1.05;;;10.20;99.90;;;;;;5041073;28;20052;-53
2022/12/28 12:22:03;;;;;;;7.55;1.33;;;10.20;99.90;;;;;;5045155;28;20037;-55
2022/12/28 12:24:30;;;;;;;6.20;1.45;;;10.20;99.90;;;;;;5043376;28;20115;-52
2022/12/28 12:26:57;;;;;;;7.50;1.40;;;10.20;99.90;;;;;;5043383;28;20037;-49
2022/12/28 12:29:24;;;;;;;7.95;1.23;;;10.20;99.90;;;;;;5037615;28;20045;-51
2022/12/28 12:31:51;;;;;;;7.22;1.77;;;10.20;99.90;;;;;;5040792;28;20136;-51
2022/12/28 12:34:17;;;;;;;5.40;1.17;;;10.20;99.90;;;;;;5045078;28;20116;-52
2022/12/28 12:36:46;;;;;;;8.02;1.50;;;10.20;99.90;;;;;;5047898;28;20040;-47
2022/12/28 12:39:13;;;;;;;6.68;1.63;;;10.20;99.90;;;;;;5045051;28;20064;-50
2022/12/28 12:41:40;;;;;;;7.57;1.50;;;10.20;99.90;;;;;;5043190;28;20349;-51
2022/12/28 12:44:07;;;;;;;9.18;1.60;;;10.20;99.90;;;;;;5042948;28;20128;-49
2022/12/28 12:46:33;;;;;;;7.88;1.65;;;10.20;99.90;;;;;;5040661;28;20069;-50
2022/12/28 12:49:00;;;;;;;7.28;1.45;;;10.20;99.90;;;;;;5037363;28;20119;-47
2022/12/28 12:51:28;;;;;;;6.47;1.50;;;10.20;99.90;;;;;;5045500;28;20037;-50
2022/12/28 12:53:55;;;;;;;8.55;1.95;;;10.30;99.90;;;;;;5039208;28;20045;-49
2022/12/28 12:56:21;;;;;;;8.95;1.70;;;10.20;99.90;;;;;;5042979;28;20042;-47
2022/12/28 12:58:48;;;;;;;7.80;1.63;;;10.30;99.90;;;;;;5039363;28;20414;-48
2022/12/28 13:01:15;;;;;;;5.28;1.20;;;10.30;99.90;;;;;;5040592;28;20092;-52
2022/12/28 13:03:42;;;;;;;7.80;1.38;;;10.30;99.90;;;;;;5048105;28;20406;-51
2022/12/28 13:06:08;;;;;;;5.45;1.40;;;10.30;99.90;;;;;;5044743;28;20034;-50
2022/12/28 13:08:35;;;;;;;7.18;1.58;;;10.30;99.90;;;;;;5040607;28;20440;-55
2022/12/28 13:11:02;;;;;;;8.18;1.85;;;10.30;99.90;;;;;;5039339;28;20050;-54